sensor_id;sensor_type;location;lat;lon;timestamp;pressure;altitude;pressure_sealevel;temperature
12854;BMP180;6495;51.808;7.478;2024-03-25T00:00:53;100038.00;;;6.70
12854;BMP180;6495;51.808;7.478;2024-03-25T00:03:21;100046.00;;;6.70
12854;BMP180;6495;51.808;7.478;2024-03-25T00:05:47;100047.00;;;6.70
12854;BMP180;6495;51.808;7.478;2024-03-25T00:08:15;100050.00;;;6.70
12854;BMP180;6495;51.808;7.478;2024-03-25T00:10:41;100057.00;;;6.70
12854;BMP180;6495;51.808;7.478;2024-03-25T00:13:08;100058.00;;;6.70
12854;BMP180;6495;51.808;7.478;2024-03-25T00:15:36;100042.00;;;6.70
12854;BMP180;6495;51.808;7.478;2024-03-25T00:18:06;100059.00;;;6.70
12854;BMP180;6495;51.808;7.478;2024-03-25T00:20:32;100048.00;;;6.70
12854;BMP180;6495;51.808;7.478;2024-03-25T00:22:59;100047.00;;;6.60
12854;BMP180;6495;51.808;7.478;2024-03-25T00:25:26;100051.00;;;6.70
12854;BMP180;6495;51.808;7.478;2024-03-25T00:27:53;100061.00;;;6.70
12854;BMP180;6495;51.808;7.478;2024-03-25T00:30:20;100052.00;;;6.60
12854;BMP180;6495;51.808;7.478;2024-03-25T00:32:47;100053.00;;;6.60
12854;BMP180;6495;51.808;7.478;2024-03-25T00:35:15;100057.00;;;6.60
12854;BMP180;6495;51.808;7.478;2024-03-25T00:37:44;100053.00;;;6.60
12854;BMP180;6495;51.808;7.478;2024-03-25T00:40:11;100058.00;;;6.60
12854;BMP180;6495;51.808;7.478;2024-03-25T00:42:39;100056.00;;;6.60
12854;BMP180;6495;51.808;7.478;2024-03-25T00:45:06;100056.00;;;6.60
12854;BMP180;6495;51.808;7.478;2024-03-25T00:47:33;100070.00;;;6.60
12854;BMP180;6495;51.808;7.478;2024-03-25T00:50:00;100075.00;;;6.60
12854;BMP180;6495;51.808;7.478;2024-03-25T00:52:29;100063.00;;;6.60
12854;BMP180;6495;51.808;7.478;2024-03-25T00:54:55;100073.00;;;6.60
12854;BMP180;6495;51.808;7.478;2024-03-25T00:57:22;100065.00;;;6.60
12854;BMP180;6495;51.808;7.478;2024-03-25T00:59:49;100066.00;;;6.60
12854;BMP180;6495;51.808;7.478;2024-03-25T01:02:16;100066.00;;;6.60
12854;BMP180;6495;51.808;7.478;2024-03-25T01:04:43;100065.00;;;6.60
12854;BMP180;6495;51.808;7.478;2024-03-25T01:07:10;100055.00;;;6.60
12854;BMP180;6495;51.808;7.478;2024-03-25T01:09:38;100051.00;;;6.60
12854;BMP180;6495;51.808;7.478;2024-03-25T01:12:06;100059.00;;;6.60
12854;BMP180;6495;51.808;7.478;2024-03-25T01:14:32;100064.00;;;6.60
12854;BMP180;6495;51.808;7.478;2024-03-25T01:16:59;100062.00;;;6.70
12854;BMP180;6495;51.808;7.478;2024-03-25T01:19:26;100062.00;;;6.70
12854;BMP180;6495;51.808;7.478;2024-03-25T01:21:53;100068.00;;;6.60
12854;BMP180;6495;51.808;7.478;2024-03-25T01:24:20;100066.00;;;6.70
12854;BMP180;6495;51.808;7.478;2024-03-25T01:26:48;100067.00;;;6.70
12854;BMP180;6495;51.808;7.478;2024-03-25T01:29:15;100063.00;;;6.70
12854;BMP180;6495;51.808;7.478;2024-03-25T01:31:42;100065.00;;;6.70
12854;BMP180;6495;51.808;7.478;2024-03-25T01:34:08;100065.00;;;6.70
12854;BMP180;6495;51.808;7.478;2024-03-25T01:36:36;100080.00;;;6.70
12854;BMP180;6495;51.808;7.478;2024-03-25T01:39:03;100075.00;;;6.70
12854;BMP180;6495;51.808;7.478;2024-03-25T01:41:31;100073.00;;;6.60
12854;BMP180;6495;51.808;7.478;2024-03-25T01:43:59;100068.00;;;6.60
12854;BMP180;6495;51.808;7.478;2024-03-25T01:46:26;100066.00;;;6.60
12854;BMP180;6495;51.808;7.478;2024-03-25T01:48:54;100069.00;;;6.60
12854;BMP180;6495;51.808;7.478;2024-03-25T01:51:25;100070.00;;;6.60
12854;BMP180;6495;51.808;7.478;2024-03-25T01:53:52;100076.00;;;6.60
12854;BMP180;6495;51.808;7.478;2024-03-25T01:56:23;100073.00;;;6.60
12854;BMP180;6495;51.808;7.478;2024-03-25T01:58:50;100074.00;;;6.60
12854;BMP180;6495;51.808;7.478;2024-03-25T02:01:22;100082.00;;;6.60
12854;BMP180;6495;51.808;7.478;2024-03-25T02:03:49;100079.00;;;6.60
12854;BMP180;6495;51.808;7.478;2024-03-25T02:06:18;100086.00;;;6.60
12854;BMP180;6495;51.808;7.478;2024-03-25T02:08:47;100086.00;;;6.60
12854;BMP180;6495;51.808;7.478;2024-03-25T02:11:16;100069.00;;;6.50
12854;BMP180;6495;51.808;7.478;2024-03-25T02:13:42;100082.00;;;6.50
12854;BMP180;6495;51.808;7.478;2024-03-25T02:16:10;100077.00;;;6.50
12854;BMP180;6495;51.808;7.478;2024-03-25T02:18:38;100083.00;;;6.50
12854;BMP180;6495;51.808;7.478;2024-03-25T02:21:05;100079.00;;;6.50
12854;BMP180;6495;51.808;7.478;2024-03-25T02:23:32;100087.00;;;6.50
12854;BMP180;6495;51.808;7.478;2024-03-25T02:26:03;100081.00;;;6.50
12854;BMP180;6495;51.808;7.478;2024-03-25T02:28:29;100081.00;;;6.50
12854;BMP180;6495;51.808;7.478;2024-03-25T02:30:56;100085.00;;;6.50
12854;BMP180;6495;51.808;7.478;2024-03-25T02:33:23;100091.00;;;6.50
12854;BMP180;6495;51.808;7.478;2024-03-25T02:35:50;100093.00;;;6.50
12854;BMP180;6495;51.808;7.478;2024-03-25T02:38:18;100089.00;;;6.40
12854;BMP180;6495;51.808;7.478;2024-03-25T02:40:46;100096.00;;;6.40
12854;BMP180;6495;51.808;7.478;2024-03-25T02:43:16;100087.00;;;6.50
12854;BMP180;6495;51.808;7.478;2024-03-25T02:45:48;100086.00;;;6.40
12854;BMP180;6495;51.808;7.478;2024-03-25T02:48:15;100089.00;;;6.40
12854;BMP180;6495;51.808;7.478;2024-03-25T02:50:42;100088.00;;;6.40
12854;BMP180;6495;51.808;7.478;2024-03-25T02:53:08;100095.00;;;6.40
12854;BMP180;6495;51.808;7.478;2024-03-25T02:55:36;100081.00;;;6.40
12854;BMP180;6495;51.808;7.478;2024-03-25T02:58:02;100077.00;;;6.40
12854;BMP180;6495;51.808;7.478;2024-03-25T03:00:31;100089.00;;;6.40
12854;BMP180;6495;51.808;7.478;2024-03-25T03:02:58;100084.00;;;6.40
12854;BMP180;6495;51.808;7.478;2024-03-25T03:05:25;100078.00;;;6.40
12854;BMP180;6495;51.808;7.478;2024-03-25T03:07:51;100086.00;;;6.40
12854;BMP180;6495;51.808;7.478;2024-03-25T03:10:19;100095.00;;;6.40
12854;BMP180;6495;51.808;7.478;2024-03-25T03:12:45;100096.00;;;6.30
12854;BMP180;6495;51.808;7.478;2024-03-25T03:15:13;100105.00;;;6.30
12854;BMP180;6495;51.808;7.478;2024-03-25T03:17:42;100115.00;;;6.30
12854;BMP180;6495;51.808;7.478;2024-03-25T03:20:10;100108.00;;;6.30
12854;BMP180;6495;51.808;7.478;2024-03-25T03:22:37;100107.00;;;6.30
12854;BMP180;6495;51.808;7.478;2024-03-25T03:25:06;100106.00;;;6.30
12854;BMP180;6495;51.808;7.478;2024-03-25T03:27:32;100119.00;;;6.30
12854;BMP180;6495;51.808;7.478;2024-03-25T03:29:59;100123.00;;;6.30
12854;BMP180;6495;51.808;7.478;2024-03-25T03:32:26;100114.00;;;6.30
12854;BMP180;6495;51.808;7.478;2024-03-25T03:34:54;100108.00;;;6.30
12854;BMP180;6495;51.808;7.478;2024-03-25T03:37:21;100093.00;;;6.30
12854;BMP180;6495;51.808;7.478;2024-03-25T03:39:48;100115.00;;;6.30
12854;BMP180;6495;51.808;7.478;2024-03-25T03:42:14;100114.00;;;6.30
12854;BMP180;6495;51.808;7.478;2024-03-25T03:44:42;100113.00;;;6.30
12854;BMP180;6495;51.808;7.478;2024-03-25T03:47:08;100116.00;;;6.30
12854;BMP180;6495;51.808;7.478;2024-03-25T03:49:35;100118.00;;;6.30
12854;BMP180;6495;51.808;7.478;2024-03-25T03:52:04;100111.00;;;6.30
12854;BMP180;6495;51.808;7.478;2024-03-25T03:54:31;100102.00;;;6.30
12854;BMP180;6495;51.808;7.478;2024-03-25T03:56:58;100110.00;;;6.30
12854;BMP180;6495;51.808;7.478;2024-03-25T03:59:26;100117.00;;;6.30
12854;BMP180;6495;51.808;7.478;2024-03-25T04:09:43;100121.00;;;6.30
12854;BMP180;6495;51.808;7.478;2024-03-25T04:12:10;100119.00;;;6.20
12854;BMP180;6495;51.808;7.478;2024-03-25T04:14:37;100118.00;;;6.20
12854;BMP180;6495;51.808;7.478;2024-03-25T04:17:04;100116.00;;;6.20
12854;BMP180;6495;51.808;7.478;2024-03-25T04:19:31;100111.00;;;6.20
12854;BMP180;6495;51.808;7.478;2024-03-25T04:21:59;100109.00;;;6.20
12854;BMP180;6495;51.808;7.478;2024-03-25T04:24:26;100123.00;;;6.20
12854;BMP180;6495;51.808;7.478;2024-03-25T04:26:55;100117.00;;;6.10
12854;BMP180;6495;51.808;7.478;2024-03-25T04:29:21;100115.00;;;6.10
12854;BMP180;6495;51.808;7.478;2024-03-25T04:31:49;100116.00;;;6.20
12854;BMP180;6495;51.808;7.478;2024-03-25T04:34:15;100113.00;;;6.10
12854;BMP180;6495;51.808;7.478;2024-03-25T04:36:42;100118.00;;;6.20
12854;BMP180;6495;51.808;7.478;2024-03-25T04:39:09;100113.00;;;6.10
12854;BMP180;6495;51.808;7.478;2024-03-25T04:41:35;100121.00;;;6.20
12854;BMP180;6495;51.808;7.478;2024-03-25T04:44:03;100123.00;;;6.20
12854;BMP180;6495;51.808;7.478;2024-03-25T04:46:30;100119.00;;;6.10
12854;BMP180;6495;51.808;7.478;2024-03-25T04:48:56;100121.00;;;6.10
12854;BMP180;6495;51.808;7.478;2024-03-25T04:51:23;100129.00;;;6.10
12854;BMP180;6495;51.808;7.478;2024-03-25T04:53:50;100125.00;;;6.10
12854;BMP180;6495;51.808;7.478;2024-03-25T04:56:16;100129.00;;;6.00
12854;BMP180;6495;51.808;7.478;2024-03-25T04:58:42;100132.00;;;6.00
12854;BMP180;6495;51.808;7.478;2024-03-25T05:01:10;100135.00;;;6.00
12854;BMP180;6495;51.808;7.478;2024-03-25T05:03:37;100128.00;;;6.00
12854;BMP180;6495;51.808;7.478;2024-03-25T05:06:04;100133.00;;;6.00
12854;BMP180;6495;51.808;7.478;2024-03-25T05:08:31;100133.00;;;6.10
12854;BMP180;6495;51.808;7.478;2024-03-25T05:10:57;100136.00;;;6.10
12854;BMP180;6495;51.808;7.478;2024-03-25T05:13:26;100137.00;;;6.10
12854;BMP180;6495;51.808;7.478;2024-03-25T05:15:53;100132.00;;;6.10
12854;BMP180;6495;51.808;7.478;2024-03-25T05:18:21;100141.00;;;6.10
12854;BMP180;6495;51.808;7.478;2024-03-25T05:20:47;100146.00;;;6.10
12854;BMP180;6495;51.808;7.478;2024-03-25T05:23:13;100144.00;;;6.10
12854;BMP180;6495;51.808;7.478;2024-03-25T05:25:40;100145.00;;;6.10
12854;BMP180;6495;51.808;7.478;2024-03-25T05:28:06;100151.00;;;6.10
12854;BMP180;6495;51.808;7.478;2024-03-25T05:30:33;100158.00;;;6.10
12854;BMP180;6495;51.808;7.478;2024-03-25T05:32:59;100159.00;;;6.10
12854;BMP180;6495;51.808;7.478;2024-03-25T05:35:27;100160.00;;;6.10
12854;BMP180;6495;51.808;7.478;2024-03-25T05:37:54;100162.00;;;6.10
12854;BMP180;6495;51.808;7.478;2024-03-25T05:40:20;100163.00;;;6.10
12854;BMP180;6495;51.808;7.478;2024-03-25T05:42:47;100158.00;;;6.10
12854;BMP180;6495;51.808;7.478;2024-03-25T05:45:13;100142.00;;;6.10
12854;BMP180;6495;51.808;7.478;2024-03-25T05:47:40;100154.00;;;6.00
12854;BMP180;6495;51.808;7.478;2024-03-25T05:50:07;100156.00;;;6.00
12854;BMP180;6495;51.808;7.478;2024-03-25T05:52:35;100150.00;;;6.00
12854;BMP180;6495;51.808;7.478;2024-03-25T05:55:02;100149.00;;;6.00
12854;BMP180;6495;51.808;7.478;2024-03-25T05:57:28;100148.00;;;6.00
12854;BMP180;6495;51.808;7.478;2024-03-25T05:59:55;100161.00;;;6.00
12854;BMP180;6495;51.808;7.478;2024-03-25T06:02:21;100159.00;;;6.00
12854;BMP180;6495;51.808;7.478;2024-03-25T06:04:47;100166.00;;;6.00
12854;BMP180;6495;51.808;7.478;2024-03-25T06:07:14;100159.00;;;6.00
12854;BMP180;6495;51.808;7.478;2024-03-25T06:09:42;100160.00;;;6.00
12854;BMP180;6495;51.808;7.478;2024-03-25T06:12:08;100167.00;;;6.00
12854;BMP180;6495;51.808;7.478;2024-03-25T06:14:35;100165.00;;;6.10
12854;BMP180;6495;51.808;7.478;2024-03-25T06:17:01;100174.00;;;6.10
12854;BMP180;6495;51.808;7.478;2024-03-25T06:19:28;100169.00;;;6.10
12854;BMP180;6495;51.808;7.478;2024-03-25T06:21:54;100166.00;;;6.10
12854;BMP180;6495;51.808;7.478;2024-03-25T06:24:21;100168.00;;;6.10
12854;BMP180;6495;51.808;7.478;2024-03-25T06:26:48;100175.00;;;6.10
12854;BMP180;6495;51.808;7.478;2024-03-25T06:29:15;100176.00;;;6.20
12854;BMP180;6495;51.808;7.478;2024-03-25T06:31:41;100167.00;;;6.20
12854;BMP180;6495;51.808;7.478;2024-03-25T06:34:26;100175.00;;;6.20
12854;BMP180;6495;51.808;7.478;2024-03-25T06:36:52;100173.00;;;6.20
12854;BMP180;6495;51.808;7.478;2024-03-25T06:39:19;100167.00;;;6.20
12854;BMP180;6495;51.808;7.478;2024-03-25T06:41:45;100172.00;;;6.20
12854;BMP180;6495;51.808;7.478;2024-03-25T06:44:13;100174.00;;;6.20
12854;BMP180;6495;51.808;7.478;2024-03-25T06:46:39;100172.00;;;6.30
12854;BMP180;6495;51.808;7.478;2024-03-25T06:49:06;100173.00;;;6.20
12854;BMP180;6495;51.808;7.478;2024-03-25T06:51:32;100178.00;;;6.20
12854;BMP180;6495;51.808;7.478;2024-03-25T06:53:59;100185.00;;;6.20
12854;BMP180;6495;51.808;7.478;2024-03-25T06:56:26;100185.00;;;6.30
12854;BMP180;6495;51.808;7.478;2024-03-25T06:58:52;100182.00;;;6.30
12854;BMP180;6495;51.808;7.478;2024-03-25T07:01:20;100188.00;;;6.30
12854;BMP180;6495;51.808;7.478;2024-03-25T07:03:46;100190.00;;;6.30
12854;BMP180;6495;51.808;7.478;2024-03-25T07:06:13;100179.00;;;6.30
12854;BMP180;6495;51.808;7.478;2024-03-25T07:08:39;100180.00;;;6.30
12854;BMP180;6495;51.808;7.478;2024-03-25T07:11:06;100185.00;;;6.40
12854;BMP180;6495;51.808;7.478;2024-03-25T07:13:32;100182.00;;;6.40
12854;BMP180;6495;51.808;7.478;2024-03-25T07:16:05;100176.00;;;6.40
12854;BMP180;6495;51.808;7.478;2024-03-25T07:18:33;100178.00;;;6.50
12854;BMP180;6495;51.808;7.478;2024-03-25T07:20:59;100187.00;;;6.60
12854;BMP180;6495;51.808;7.478;2024-03-25T07:23:25;100195.00;;;6.60
12854;BMP180;6495;51.808;7.478;2024-03-25T07:25:52;100191.00;;;6.60
12854;BMP180;6495;51.808;7.478;2024-03-25T07:28:18;100196.00;;;6.70
12854;BMP180;6495;51.808;7.478;2024-03-25T07:30:44;100194.00;;;6.70
12854;BMP180;6495;51.808;7.478;2024-03-25T07:33:11;100195.00;;;6.80
12854;BMP180;6495;51.808;7.478;2024-03-25T07:35:39;100204.00;;;6.90
12854;BMP180;6495;51.808;7.478;2024-03-25T07:38:05;100205.00;;;6.90
12854;BMP180;6495;51.808;7.478;2024-03-25T07:40:31;100191.00;;;6.90
12854;BMP180;6495;51.808;7.478;2024-03-25T07:42:58;100197.00;;;7.00
12854;BMP180;6495;51.808;7.478;2024-03-25T07:45:24;100195.00;;;7.10
12854;BMP180;6495;51.808;7.478;2024-03-25T07:47:52;100191.00;;;7.10
12854;BMP180;6495;51.808;7.478;2024-03-25T07:50:19;100206.00;;;7.20
12854;BMP180;6495;51.808;7.478;2024-03-25T07:52:46;100207.00;;;7.30
12854;BMP180;6495;51.808;7.478;2024-03-25T07:55:13;100199.00;;;7.40
12854;BMP180;6495;51.808;7.478;2024-03-25T07:57:39;100207.00;;;7.40
12854;BMP180;6495;51.808;7.478;2024-03-25T08:00:07;100211.00;;;7.50
12854;BMP180;6495;51.808;7.478;2024-03-25T08:02:40;100208.00;;;7.50
12854;BMP180;6495;51.808;7.478;2024-03-25T08:05:06;100209.00;;;7.60
12854;BMP180;6495;51.808;7.478;2024-03-25T08:07:33;100211.00;;;7.60
12854;BMP180;6495;51.808;7.478;2024-03-25T08:10:00;100205.00;;;7.70
12854;BMP180;6495;51.808;7.478;2024-03-25T08:12:27;100208.00;;;7.70
12854;BMP180;6495;51.808;7.478;2024-03-25T08:14:53;100225.00;;;7.80
12854;BMP180;6495;51.808;7.478;2024-03-25T08:17:20;100213.00;;;7.90
12854;BMP180;6495;51.808;7.478;2024-03-25T08:19:46;100205.00;;;7.90
12854;BMP180;6495;51.808;7.478;2024-03-25T08:22:12;100214.00;;;8.00
12854;BMP180;6495;51.808;7.478;2024-03-25T08:24:39;100212.00;;;8.10
12854;BMP180;6495;51.808;7.478;2024-03-25T08:27:06;100215.00;;;8.10
12854;BMP180;6495;51.808;7.478;2024-03-25T08:29:36;100208.00;;;8.20
12854;BMP180;6495;51.808;7.478;2024-03-25T08:32:03;100212.00;;;8.30
12854;BMP180;6495;51.808;7.478;2024-03-25T08:34:29;100210.00;;;8.40
12854;BMP180;6495;51.808;7.478;2024-03-25T08:36:56;100209.00;;;8.50
12854;BMP180;6495;51.808;7.478;2024-03-25T08:39:22;100207.00;;;8.50
12854;BMP180;6495;51.808;7.478;2024-03-25T08:41:49;100205.00;;;8.60
12854;BMP180;6495;51.808;7.478;2024-03-25T08:44:17;100211.00;;;8.70
12854;BMP180;6495;51.808;7.478;2024-03-25T08:46:43;100212.00;;;8.80
12854;BMP180;6495;51.808;7.478;2024-03-25T08:49:12;100213.00;;;8.90
12854;BMP180;6495;51.808;7.478;2024-03-25T08:51:39;100217.00;;;9.00
12854;BMP180;6495;51.808;7.478;2024-03-25T08:54:05;100214.00;;;9.10
12854;BMP180;6495;51.808;7.478;2024-03-25T08:56:32;100222.00;;;9.20
12854;BMP180;6495;51.808;7.478;2024-03-25T08:58:58;100211.00;;;9.20
12854;BMP180;6495;51.808;7.478;2024-03-25T09:01:26;100215.00;;;9.30
12854;BMP180;6495;51.808;7.478;2024-03-25T09:03:52;100215.00;;;9.40
12854;BMP180;6495;51.808;7.478;2024-03-25T09:06:19;100212.00;;;9.50
12854;BMP180;6495;51.808;7.478;2024-03-25T09:08:45;100215.00;;;9.60
12854;BMP180;6495;51.808;7.478;2024-03-25T09:11:31;100218.00;;;9.70
12854;BMP180;6495;51.808;7.478;2024-03-25T09:13:57;100225.00;;;9.80
12854;BMP180;6495;51.808;7.478;2024-03-25T09:16:25;100223.00;;;9.80
12854;BMP180;6495;51.808;7.478;2024-03-25T09:18:52;100226.00;;;9.90
12854;BMP180;6495;51.808;7.478;2024-03-25T09:21:18;100226.00;;;10.00
12854;BMP180;6495;51.808;7.478;2024-03-25T09:23:45;100213.00;;;10.00
12854;BMP180;6495;51.808;7.478;2024-03-25T09:26:11;100217.00;;;10.20
12854;BMP180;6495;51.808;7.478;2024-03-25T09:28:37;100216.00;;;10.30
12854;BMP180;6495;51.808;7.478;2024-03-25T09:31:04;100221.00;;;10.40
12854;BMP180;6495;51.808;7.478;2024-03-25T09:33:31;100222.00;;;10.50
12854;BMP180;6495;51.808;7.478;2024-03-25T09:36:00;100225.00;;;10.60
12854;BMP180;6495;51.808;7.478;2024-03-25T09:38:26;100216.00;;;10.70
12854;BMP180;6495;51.808;7.478;2024-03-25T09:40:53;100227.00;;;10.80
12854;BMP180;6495;51.808;7.478;2024-03-25T09:43:25;100225.00;;;11.00
12854;BMP180;6495;51.808;7.478;2024-03-25T09:45:56;100223.00;;;11.20
12854;BMP180;6495;51.808;7.478;2024-03-25T09:48:23;100208.00;;;11.30
12854;BMP180;6495;51.808;7.478;2024-03-25T09:50:52;100211.00;;;11.40
12854;BMP180;6495;51.808;7.478;2024-03-25T09:53:19;100230.00;;;11.50
12854;BMP180;6495;51.808;7.478;2024-03-25T09:55:47;100223.00;;;11.60
12854;BMP180;6495;51.808;7.478;2024-03-25T09:58:14;100216.00;;;11.80
12854;BMP180;6495;51.808;7.478;2024-03-25T10:00:41;100216.00;;;11.80
12854;BMP180;6495;51.808;7.478;2024-03-25T10:03:09;100218.00;;;11.80
12854;BMP180;6495;51.808;7.478;2024-03-25T10:05:35;100215.00;;;11.80
12854;BMP180;6495;51.808;7.478;2024-03-25T10:08:04;100212.00;;;11.80
12854;BMP180;6495;51.808;7.478;2024-03-25T10:10:30;100213.00;;;11.80
12854;BMP180;6495;51.808;7.478;2024-03-25T10:12:57;100204.00;;;11.90
12854;BMP180;6495;51.808;7.478;2024-03-25T10:15:23;100207.00;;;11.90
12854;BMP180;6495;51.808;7.478;2024-03-25T10:17:50;100214.00;;;11.90
12854;BMP180;6495;51.808;7.478;2024-03-25T10:20:22;100209.00;;;11.90
12854;BMP180;6495;51.808;7.478;2024-03-25T10:22:49;100213.00;;;11.90
12854;BMP180;6495;51.808;7.478;2024-03-25T10:25:26;100210.00;;;12.00
12854;BMP180;6495;51.808;7.478;2024-03-25T10:27:54;100205.00;;;12.00
12854;BMP180;6495;51.808;7.478;2024-03-25T10:30:21;100201.00;;;12.10
12854;BMP180;6495;51.808;7.478;2024-03-25T10:32:58;100197.00;;;12.10
12854;BMP180;6495;51.808;7.478;2024-03-25T10:35:29;100197.00;;;12.10
12854;BMP180;6495;51.808;7.478;2024-03-25T10:37:59;100196.00;;;12.10
12854;BMP180;6495;51.808;7.478;2024-03-25T10:40:29;100197.00;;;12.10
12854;BMP180;6495;51.808;7.478;2024-03-25T10:43:02;100204.00;;;12.20
12854;BMP180;6495;51.808;7.478;2024-03-25T10:45:34;100197.00;;;12.20
12854;BMP180;6495;51.808;7.478;2024-03-25T10:48:08;100193.00;;;12.30
12854;BMP180;6495;51.808;7.478;2024-03-25T10:50:37;100195.00;;;12.40
12854;BMP180;6495;51.808;7.478;2024-03-25T10:53:05;100193.00;;;12.40
12854;BMP180;6495;51.808;7.478;2024-03-25T10:55:36;100185.00;;;12.40
12854;BMP180;6495;51.808;7.478;2024-03-25T10:58:07;100194.00;;;12.40
12854;BMP180;6495;51.808;7.478;2024-03-25T11:00:34;100190.00;;;12.30
12854;BMP180;6495;51.808;7.478;2024-03-25T11:03:02;100177.00;;;12.20
12854;BMP180;6495;51.808;7.478;2024-03-25T11:05:29;100177.00;;;12.30
12854;BMP180;6495;51.808;7.478;2024-03-25T11:07:55;100174.00;;;12.40
12854;BMP180;6495;51.808;7.478;2024-03-25T11:10:29;100162.00;;;12.40
12854;BMP180;6495;51.808;7.478;2024-03-25T11:12:57;100152.00;;;12.40
12854;BMP180;6495;51.808;7.478;2024-03-25T11:15:23;100159.00;;;12.40
12854;BMP180;6495;51.808;7.478;2024-03-25T11:17:50;100151.00;;;12.40
12854;BMP180;6495;51.808;7.478;2024-03-25T11:20:17;100152.00;;;12.40
12854;BMP180;6495;51.808;7.478;2024-03-25T11:22:50;100153.00;;;12.50
12854;BMP180;6495;51.808;7.478;2024-03-25T11:25:17;100147.00;;;12.70
12854;BMP180;6495;51.808;7.478;2024-03-25T11:27:44;100153.00;;;12.90
12854;BMP180;6495;51.808;7.478;2024-03-25T11:30:14;100148.00;;;12.90
12854;BMP180;6495;51.808;7.478;2024-03-25T11:32:45;100142.00;;;13.00
12854;BMP180;6495;51.808;7.478;2024-03-25T11:35:12;100140.00;;;13.10
12854;BMP180;6495;51.808;7.478;2024-03-25T11:37:41;100145.00;;;13.30
12854;BMP180;6495;51.808;7.478;2024-03-25T11:40:10;100141.00;;;13.40
12854;BMP180;6495;51.808;7.478;2024-03-25T11:42:38;100137.00;;;13.50
12854;BMP180;6495;51.808;7.478;2024-03-25T11:45:06;100144.00;;;13.60
12854;BMP180;6495;51.808;7.478;2024-03-25T11:47:34;100139.00;;;13.50
12854;BMP180;6495;51.808;7.478;2024-03-25T11:50:08;100134.00;;;13.50
12854;BMP180;6495;51.808;7.478;2024-03-25T11:52:34;100133.00;;;13.50
12854;BMP180;6495;51.808;7.478;2024-03-25T11:55:01;100123.00;;;13.60
12854;BMP180;6495;51.808;7.478;2024-03-25T11:57:30;100120.00;;;13.70
12854;BMP180;6495;51.808;7.478;2024-03-25T11:59:58;100112.00;;;13.70
12854;BMP180;6495;51.808;7.478;2024-03-25T12:02:25;100122.00;;;13.60
12854;BMP180;6495;51.808;7.478;2024-03-25T12:04:53;100119.00;;;13.70
12854;BMP180;6495;51.808;7.478;2024-03-25T12:07:19;100121.00;;;13.80
12854;BMP180;6495;51.808;7.478;2024-03-25T12:09:46;100113.00;;;13.80
12854;BMP180;6495;51.808;7.478;2024-03-25T12:12:33;100104.00;;;13.70
12854;BMP180;6495;51.808;7.478;2024-03-25T12:14:59;100101.00;;;13.50
12854;BMP180;6495;51.808;7.478;2024-03-25T12:17:27;100107.00;;;13.60
12854;BMP180;6495;51.808;7.478;2024-03-25T12:20:02;100097.00;;;13.70
12854;BMP180;6495;51.808;7.478;2024-03-25T12:22:31;100091.00;;;13.90
12854;BMP180;6495;51.808;7.478;2024-03-25T12:24:59;100091.00;;;13.90
12854;BMP180;6495;51.808;7.478;2024-03-25T12:27:27;100095.00;;;13.90
12854;BMP180;6495;51.808;7.478;2024-03-25T12:29:59;100086.00;;;13.80
12854;BMP180;6495;51.808;7.478;2024-03-25T12:32:36;100077.00;;;13.70
12854;BMP180;6495;51.808;7.478;2024-03-25T12:35:07;100074.00;;;13.80
12854;BMP180;6495;51.808;7.478;2024-03-25T12:37:34;100068.00;;;13.90
12854;BMP180;6495;51.808;7.478;2024-03-25T12:40:00;100063.00;;;14.00
12854;BMP180;6495;51.808;7.478;2024-03-25T12:42:27;100061.00;;;14.00
12854;BMP180;6495;51.808;7.478;2024-03-25T12:44:54;100051.00;;;14.00
12854;BMP180;6495;51.808;7.478;2024-03-25T12:47:20;100065.00;;;14.10
12854;BMP180;6495;51.808;7.478;2024-03-25T12:49:47;100053.00;;;14.00
12854;BMP180;6495;51.808;7.478;2024-03-25T12:52:15;100050.00;;;14.10
12854;BMP180;6495;51.808;7.478;2024-03-25T12:54:41;100041.00;;;14.00
12854;BMP180;6495;51.808;7.478;2024-03-25T12:57:07;100049.00;;;14.10
12854;BMP180;6495;51.808;7.478;2024-03-25T12:59:34;100046.00;;;14.20
12854;BMP180;6495;51.808;7.478;2024-03-25T13:02:01;100041.00;;;14.20
12854;BMP180;6495;51.808;7.478;2024-03-25T13:04:28;100044.00;;;14.30
12854;BMP180;6495;51.808;7.478;2024-03-25T13:06:54;100037.00;;;14.50
12854;BMP180;6495;51.808;7.478;2024-03-25T13:09:22;100036.00;;;14.50
12854;BMP180;6495;51.808;7.478;2024-03-25T13:11:48;100029.00;;;14.50
12854;BMP180;6495;51.808;7.478;2024-03-25T13:14:15;100023.00;;;14.50
12854;BMP180;6495;51.808;7.478;2024-03-25T13:16:42;100030.00;;;14.50
12854;BMP180;6495;51.808;7.478;2024-03-25T13:19:08;100030.00;;;14.40
12854;BMP180;6495;51.808;7.478;2024-03-25T13:21:34;100019.00;;;14.30
12854;BMP180;6495;51.808;7.478;2024-03-25T13:24:01;100017.00;;;14.10
12854;BMP180;6495;51.808;7.478;2024-03-25T13:26:28;100010.00;;;13.90
12854;BMP180;6495;51.808;7.478;2024-03-25T13:28:55;100008.00;;;13.70
12854;BMP180;6495;51.808;7.478;2024-03-25T13:31:21;100018.00;;;13.50
12854;BMP180;6495;51.808;7.478;2024-03-25T13:33:48;100015.00;;;13.50
12854;BMP180;6495;51.808;7.478;2024-03-25T13:36:14;100005.00;;;13.50
12854;BMP180;6495;51.808;7.478;2024-03-25T13:38:40;100006.00;;;13.40
12854;BMP180;6495;51.808;7.478;2024-03-25T13:41:07;99993.00;;;13.40
12854;BMP180;6495;51.808;7.478;2024-03-25T13:43:34;99991.00;;;13.40
12854;BMP180;6495;51.808;7.478;2024-03-25T13:46:01;99992.00;;;13.30
12854;BMP180;6495;51.808;7.478;2024-03-25T13:48:27;100003.00;;;13.40
12854;BMP180;6495;51.808;7.478;2024-03-25T13:50:54;100000.00;;;13.40
12854;BMP180;6495;51.808;7.478;2024-03-25T13:53:20;99993.00;;;13.40
12854;BMP180;6495;51.808;7.478;2024-03-25T13:55:47;99997.00;;;13.30
12854;BMP180;6495;51.808;7.478;2024-03-25T13:58:13;99992.00;;;13.30
12854;BMP180;6495;51.808;7.478;2024-03-25T14:00:41;99992.00;;;13.20
12854;BMP180;6495;51.808;7.478;2024-03-25T14:03:07;99984.00;;;13.30
12854;BMP180;6495;51.808;7.478;2024-03-25T14:05:34;99988.00;;;13.40
12854;BMP180;6495;51.808;7.478;2024-03-25T14:08:00;99984.00;;;13.50
12854;BMP180;6495;51.808;7.478;2024-03-25T14:10:26;99973.00;;;13.60
12854;BMP180;6495;51.808;7.478;2024-03-25T14:12:53;99982.00;;;13.70
12854;BMP180;6495;51.808;7.478;2024-03-25T14:15:19;99967.00;;;13.80
12854;BMP180;6495;51.808;7.478;2024-03-25T14:17:47;99962.00;;;13.90
12854;BMP180;6495;51.808;7.478;2024-03-25T14:20:13;99960.00;;;14.00
12854;BMP180;6495;51.808;7.478;2024-03-25T14:22:39;99963.00;;;13.90
12854;BMP180;6495;51.808;7.478;2024-03-25T14:25:07;99958.00;;;13.80